sensor_id;sensor_type;location;lat;lon;timestamp;P1;durP1;ratioP1;P2;durP2;ratioP2
32934;SDS011;19292;51.532;7.650;2022-07-29T00:00:20;9.27;;;1.92;;
32934;SDS011;19292;51.532;7.650;2022-07-29T00:02:46;20.40;;;2.13;;
32934;SDS011;19292;51.532;7.650;2022-07-29T00:05:11;5.80;;;1.90;;
32934;SDS011;19292;51.532;7.650;2022-07-29T00:07:38;5.25;;;2.00;;
32934;SDS011;19292;51.532;7.650;2022-07-29T00:10:04;5.40;;;1.90;;
32934;SDS011;19292;51.532;7.650;2022-07-29T00:12:30;7.07;;;2.40;;
32934;SDS011;19292;51.532;7.650;2022-07-29T00:14:55;8.00;;;2.15;;
32934;SDS011;19292;51.532;7.650;2022-07-29T00:17:22;5.55;;;2.00;;
32934;SDS011;19292;51.532;7.650;2022-07-29T00:19:50;9.82;;;2.05;;
32934;SDS011;19292;51.532;7.650;2022-07-29T00:22:16;5.97;;;2.13;;
32934;SDS011;19292;51.532;7.650;2022-07-29T00:24:41;12.18;;;2.17;;
32934;SDS011;19292;51.532;7.650;2022-07-29T00:27:07;8.52;;;2.00;;
32934;SDS011;19292;51.532;7.650;2022-07-29T00:29:32;8.82;;;2.35;;
32934;SDS011;19292;51.532;7.650;2022-07-29T00:31:57;10.93;;;2.50;;
32934;SDS011;19292;51.532;7.650;2022-07-29T00:34:23;8.85;;;2.08;;
32934;SDS011;19292;51.532;7.650;2022-07-29T00:37:07;5.18;;;2.58;;
32934;SDS011;19292;51.532;7.650;2022-07-29T00:39:32;8.32;;;2.15;;
32934;SDS011;19292;51.532;7.650;2022-07-29T00:41:58;9.00;;;2.17;;
32934;SDS011;19292;51.532;7.650;2022-07-29T00:44:23;7.05;;;2.30;;
32934;SDS011;19292;51.532;7.650;2022-07-29T00:46:49;8.15;;;2.30;;
32934;SDS011;19292;51.532;7.650;2022-07-29T00:49:14;5.43;;;1.95;;
32934;SDS011;19292;51.532;7.650;2022-07-29T00:51:40;8.10;;;2.50;;
32934;SDS011;19292;51.532;7.650;2022-07-29T00:54:05;15.95;;;2.80;;
32934;SDS011;19292;51.532;7.650;2022-07-29T00:56:31;6.72;;;1.73;;
32934;SDS011;19292;51.532;7.650;2022-07-29T00:58:57;7.15;;;2.85;;
32934;SDS011;19292;51.532;7.650;2022-07-29T01:01:23;7.55;;;1.77;;
32934;SDS011;19292;51.532;7.650;2022-07-29T01:03:48;10.38;;;2.10;;
32934;SDS011;19292;51.532;7.650;2022-07-29T01:06:15;9.25;;;2.15;;
32934;SDS011;19292;51.532;7.650;2022-07-29T01:08:44;6.18;;;2.33;;
32934;SDS011;19292;51.532;7.650;2022-07-29T01:11:10;3.72;;;1.80;;
32934;SDS011;19292;51.532;7.650;2022-07-29T01:13:36;4.93;;;2.30;;
32934;SDS011;19292;51.532;7.650;2022-07-29T01:16:13;3.58;;;1.80;;
32934;SDS011;19292;51.532;7.650;2022-07-29T01:18:44;5.97;;;1.95;;
32934;SDS011;19292;51.532;7.650;2022-07-29T01:24:19;6.85;;;1.92;;
32934;SDS011;19292;51.532;7.650;2022-07-29T01:27:26;6.78;;;2.13;;
32934;SDS011;19292;51.532;7.650;2022-07-29T01:30:02;2.97;;;1.70;;
32934;SDS011;19292;51.532;7.650;2022-07-29T01:32:29;6.43;;;2.33;;
32934;SDS011;19292;51.532;7.650;2022-07-29T01:40:43;7.45;;;2.30;;
32934;SDS011;19292;51.532;7.650;2022-07-29T01:43:13;9.02;;;2.35;;
32934;SDS011;19292;51.532;7.650;2022-07-29T01:45:41;3.78;;;2.08;;
32934;SDS011;19292;51.532;7.650;2022-07-29T01:48:13;7.15;;;2.10;;
32934;SDS011;19292;51.532;7.650;2022-07-29T01:50:56;8.55;;;2.03;;
32934;SDS011;19292;51.532;7.650;2022-07-29T01:53:25;7.22;;;2.20;;
32934;SDS011;19292;51.532;7.650;2022-07-29T01:55:54;10.75;;;2.35;;
32934;SDS011;19292;51.532;7.650;2022-07-29T01:58:21;7.40;;;2.83;;
32934;SDS011;19292;51.532;7.650;2022-07-29T02:00:48;7.15;;;2.42;;
32934;SDS011;19292;51.532;7.650;2022-07-29T02:03:14;5.38;;;2.40;;
32934;SDS011;19292;51.532;7.650;2022-07-29T02:05:40;7.45;;;2.00;;
32934;SDS011;19292;51.532;7.650;2022-07-29T02:08:07;3.92;;;1.95;;
32934;SDS011;19292;51.532;7.650;2022-07-29T02:10:33;5.47;;;2.47;;
32934;SDS011;19292;51.532;7.650;2022-07-29T02:12:59;7.25;;;2.47;;
32934;SDS011;19292;51.532;7.650;2022-07-29T02:15:27;5.07;;;1.90;;
32934;SDS011;19292;51.532;7.650;2022-07-29T02:18:01;7.15;;;2.15;;
32934;SDS011;19292;51.532;7.650;2022-07-29T02:20:28;8.23;;;3.10;;
32934;SDS011;19292;51.532;7.650;2022-07-29T02:22:55;8.98;;;2.25;;
32934;SDS011;19292;51.532;7.650;2022-07-29T02:25:22;6.78;;;2.10;;
32934;SDS011;19292;51.532;7.650;2022-07-29T02:27:49;3.63;;;2.22;;
32934;SDS011;19292;51.532;7.650;2022-07-29T02:30:15;7.72;;;2.05;;
32934;SDS011;19292;51.532;7.650;2022-07-29T02:32:42;8.73;;;2.00;;
32934;SDS011;19292;51.532;7.650;2022-07-29T02:35:08;11.63;;;2.50;;
32934;SDS011;19292;51.532;7.650;2022-07-29T02:37:35;6.28;;;2.08;;
32934;SDS011;19292;51.532;7.650;2022-07-29T02:40:02;7.10;;;2.30;;
32934;SDS011;19292;51.532;7.650;2022-07-29T02:42:28;6.38;;;2.88;;
32934;SDS011;19292;51.532;7.650;2022-07-29T02:44:54;8.45;;;2.30;;
32934;SDS011;19292;51.532;7.650;2022-07-29T02:47:24;4.47;;;2.22;;
32934;SDS011;19292;51.532;7.650;2022-07-29T02:50:00;8.27;;;2.13;;
32934;SDS011;19292;51.532;7.650;2022-07-29T02:53:03;8.63;;;2.05;;
32934;SDS011;19292;51.532;7.650;2022-07-29T02:55:40;8.13;;;2.65;;
32934;SDS011;19292;51.532;7.650;2022-07-29T02:58:10;8.20;;;2.20;;
32934;SDS011;19292;51.532;7.650;2022-07-29T03:00:45;5.60;;;2.30;;
32934;SDS011;19292;51.532;7.650;2022-07-29T03:03:12;9.73;;;2.35;;
32934;SDS011;19292;51.532;7.650;2022-07-29T03:05:41;6.07;;;2.30;;
32934;SDS011;19292;51.532;7.650;2022-07-29T03:08:09;6.18;;;2.28;;
32934;SDS011;19292;51.532;7.650;2022-07-29T03:10:37;7.95;;;2.28;;
32934;SDS011;19292;51.532;7.650;2022-07-29T03:13:07;8.77;;;2.40;;
32934;SDS011;19292;51.532;7.650;2022-07-29T03:15:34;10.52;;;3.03;;
32934;SDS011;19292;51.532;7.650;2022-07-29T03:18:00;9.85;;;2.10;;
32934;SDS011;19292;51.532;7.650;2022-07-29T03:20:26;8.15;;;2.58;;
32934;SDS011;19292;51.532;7.650;2022-07-29T03:22:52;9.38;;;2.80;;
32934;SDS011;19292;51.532;7.650;2022-07-29T03:25:18;6.35;;;2.00;;
32934;SDS011;19292;51.532;7.650;2022-07-29T03:27:45;6.07;;;2.33;;
32934;SDS011;19292;51.532;7.650;2022-07-29T03:30:11;15.27;;;2.38;;
32934;SDS011;19292;51.532;7.650;2022-07-29T03:32:38;6.28;;;2.72;;
32934;SDS011;19292;51.532;7.650;2022-07-29T03:35:04;5.78;;;2.30;;
32934;SDS011;19292;51.532;7.650;2022-07-29T03:37:29;10.35;;;2.83;;
32934;SDS011;19292;51.532;7.650;2022-07-29T03:39:56;6.47;;;2.40;;
32934;SDS011;19292;51.532;7.650;2022-07-29T03:42:23;2.95;;;2.28;;
32934;SDS011;19292;51.532;7.650;2022-07-29T03:44:50;11.48;;;2.40;;
32934;SDS011;19292;51.532;7.650;2022-07-29T03:47:18;6.53;;;2.33;;
32934;SDS011;19292;51.532;7.650;2022-07-29T03:49:47;9.40;;;2.25;;
32934;SDS011;19292;51.532;7.650;2022-07-29T03:52:13;6.50;;;2.22;;
32934;SDS011;19292;51.532;7.650;2022-07-29T03:54:39;9.05;;;2.28;;
32934;SDS011;19292;51.532;7.650;2022-07-29T03:57:05;9.02;;;2.53;;
32934;SDS011;19292;51.532;7.650;2022-07-29T03:59:32;5.90;;;2.30;;
32934;SDS011;19292;51.532;7.650;2022-07-29T04:01:58;7.72;;;2.20;;
32934;SDS011;19292;51.532;7.650;2022-07-29T04:04:25;4.45;;;2.58;;
32934;SDS011;19292;51.532;7.650;2022-07-29T04:06:50;9.02;;;2.70;;
32934;SDS011;19292;51.532;7.650;2022-07-29T04:09:16;6.93;;;2.78;;
32934;SDS011;19292;51.532;7.650;2022-07-29T04:11:41;9.60;;;2.80;;
32934;SDS011;19292;51.532;7.650;2022-07-29T04:14:07;8.23;;;2.85;;
32934;SDS011;19292;51.532;7.650;2022-07-29T04:16:32;15.13;;;3.10;;
32934;SDS011;19292;51.532;7.650;2022-07-29T04:18:58;7.75;;;2.72;;
32934;SDS011;19292;51.532;7.650;2022-07-29T04:21:26;6.13;;;2.58;;
32934;SDS011;19292;51.532;7.650;2022-07-29T04:23:51;11.07;;;3.17;;
32934;SDS011;19292;51.532;7.650;2022-07-29T04:26:17;10.18;;;3.10;;
32934;SDS011;19292;51.532;7.650;2022-07-29T04:28:43;7.00;;;2.38;;
32934;SDS011;19292;51.532;7.650;2022-07-29T04:31:09;7.18;;;2.70;;
32934;SDS011;19292;51.532;7.650;2022-07-29T04:33:37;7.93;;;2.83;;
32934;SDS011;19292;51.532;7.650;2022-07-29T04:36:03;7.85;;;3.03;;
32934;SDS011;19292;51.532;7.650;2022-07-29T04:38:28;4.88;;;2.65;;
32934;SDS011;19292;51.532;7.650;2022-07-29T04:40:54;11.10;;;3.00;;
32934;SDS011;19292;51.532;7.650;2022-07-29T04:43:19;10.80;;;3.17;;
32934;SDS011;19292;51.532;7.650;2022-07-29T04:45:44;4.57;;;2.55;;
32934;SDS011;19292;51.532;7.650;2022-07-29T04:48:10;7.43;;;2.95;;
32934;SDS011;19292;51.532;7.650;2022-07-29T04:50:37;9.43;;;2.42;;
32934;SDS011;19292;51.532;7.650;2022-07-29T04:53:03;7.38;;;2.50;;
32934;SDS011;19292;51.532;7.650;2022-07-29T04:55:28;5.95;;;2.35;;
32934;SDS011;19292;51.532;7.650;2022-07-29T04:57:54;8.93;;;3.03;;
32934;SDS011;19292;51.532;7.650;2022-07-29T05:00:19;10.07;;;2.60;;
32934;SDS011;19292;51.532;7.650;2022-07-29T05:02:44;8.40;;;2.63;;
32934;SDS011;19292;51.532;7.650;2022-07-29T05:05:10;3.95;;;1.90;;
32934;SDS011;19292;51.532;7.650;2022-07-29T05:07:35;6.75;;;2.53;;
32934;SDS011;19292;51.532;7.650;2022-07-29T05:10:00;5.50;;;2.60;;
32934;SDS011;19292;51.532;7.650;2022-07-29T05:12:26;6.00;;;2.38;;
32934;SDS011;19292;51.532;7.650;2022-07-29T05:14:52;7.13;;;2.03;;
32934;SDS011;19292;51.532;7.650;2022-07-29T05:17:18;7.00;;;1.92;;
32934;SDS011;19292;51.532;7.650;2022-07-29T05:19:43;4.40;;;1.90;;
32934;SDS011;19292;51.532;7.650;2022-07-29T05:22:09;7.13;;;2.38;;
32934;SDS011;19292;51.532;7.650;2022-07-29T05:24:34;7.88;;;2.05;;
32934;SDS011;19292;51.532;7.650;2022-07-29T05:26:59;4.07;;;1.83;;
32934;SDS011;19292;51.532;7.650;2022-07-29T05:29:25;6.03;;;2.28;;
32934;SDS011;19292;51.532;7.650;2022-07-29T05:31:51;5.25;;;2.08;;
32934;SDS011;19292;51.532;7.650;2022-07-29T05:34:17;10.23;;;2.05;;
32934;SDS011;19292;51.532;7.650;2022-07-29T05:36:44;5.03;;;2.58;;
32934;SDS011;19292;51.532;7.650;2022-07-29T05:39:12;5.65;;;2.45;;
32934;SDS011;19292;51.532;7.650;2022-07-29T05:41:38;5.43;;;2.05;;
32934;SDS011;19292;51.532;7.650;2022-07-29T05:44:03;7.28;;;2.00;;
32934;SDS011;19292;51.532;7.650;2022-07-29T05:46:29;6.43;;;2.38;;
32934;SDS011;19292;51.532;7.650;2022-07-29T05:48:54;5.57;;;1.90;;
32934;SDS011;19292;51.532;7.650;2022-07-29T05:51:20;5.63;;;2.28;;
32934;SDS011;19292;51.532;7.650;2022-07-29T05:53:48;7.53;;;2.72;;
32934;SDS011;19292;51.532;7.650;2022-07-29T05:56:13;9.45;;;2.38;;
32934;SDS011;19292;51.532;7.650;2022-07-29T05:58:38;14.82;;;2.88;;
32934;SDS011;19292;51.532;7.650;2022-07-29T06:01:06;4.97;;;2.50;;
32934;SDS011;19292;51.532;7.650;2022-07-29T06:03:32;6.70;;;2.78;;
32934;SDS011;19292;51.532;7.650;2022-07-29T06:05:57;5.85;;;2.83;;
32934;SDS011;19292;51.532;7.650;2022-07-29T06:08:22;9.35;;;3.00;;
32934;SDS011;19292;51.532;7.650;2022-07-29T06:10:48;5.85;;;2.42;;
32934;SDS011;19292;51.532;7.650;2022-07-29T06:13:13;7.68;;;2.42;;
32934;SDS011;19292;51.532;7.650;2022-07-29T06:15:40;5.57;;;2.22;;
32934;SDS011;19292;51.532;7.650;2022-07-29T06:18:07;5.57;;;2.53;;
32934;SDS011;19292;51.532;7.650;2022-07-29T06:20:34;6.13;;;2.85;;
32934;SDS011;19292;51.532;7.650;2022-07-29T06:22:59;7.03;;;2.13;;
32934;SDS011;19292;51.532;7.650;2022-07-29T06:25:25;5.85;;;2.38;;
32934;SDS011;19292;51.532;7.650;2022-07-29T06:27:51;6.15;;;2.40;;
32934;SDS011;19292;51.532;7.650;2022-07-29T06:30:19;4.60;;;2.10;;
32934;SDS011;19292;51.532;7.650;2022-07-29T06:32:45;3.72;;;2.03;;
32934;SDS011;19292;51.532;7.650;2022-07-29T06:35:11;5.72;;;2.25;;
32934;SDS011;19292;51.532;7.650;2022-07-29T06:37:36;5.20;;;2.13;;
32934;SDS011;19292;51.532;7.650;2022-07-29T06:40:01;11.57;;;2.60;;
32934;SDS011;19292;51.532;7.650;2022-07-29T06:42:47;5.82;;;2.25;;
32934;SDS011;19292;51.532;7.650;2022-07-29T06:45:13;11.15;;;2.78;;
32934;SDS011;19292;51.532;7.650;2022-07-29T06:47:39;7.60;;;2.47;;
32934;SDS011;19292;51.532;7.650;2022-07-29T06:50:05;6.43;;;2.15;;
32934;SDS011;19292;51.532;7.650;2022-07-29T06:52:31;7.30;;;2.10;;
32934;SDS011;19292;51.532;7.650;2022-07-29T06:54:56;6.72;;;2.80;;
32934;SDS011;19292;51.532;7.650;2022-07-29T06:57:21;7.65;;;2.17;;
32934;SDS011;19292;51.532;7.650;2022-07-29T06:59:47;6.80;;;2.13;;
32934;SDS011;19292;51.532;7.650;2022-07-29T07:02:13;6.75;;;2.30;;
32934;SDS011;19292;51.532;7.650;2022-07-29T07:04:38;8.23;;;2.33;;
32934;SDS011;19292;51.532;7.650;2022-07-29T07:07:04;5.60;;;2.08;;
32934;SDS011;19292;51.532;7.650;2022-07-29T07:09:29;6.78;;;2.58;;
32934;SDS011;19292;51.532;7.650;2022-07-29T07:11:54;6.78;;;2.30;;
32934;SDS011;19292;51.532;7.650;2022-07-29T07:14:20;6.80;;;2.40;;
32934;SDS011;19292;51.532;7.650;2022-07-29T07:16:45;8.32;;;2.63;;
32934;SDS011;19292;51.532;7.650;2022-07-29T07:19:13;8.35;;;6.93;;
32934;SDS011;19292;51.532;7.650;2022-07-29T07:21:39;16.90;;;2.97;;
32934;SDS011;19292;51.532;7.650;2022-07-29T07:24:04;6.68;;;2.50;;
32934;SDS011;19292;51.532;7.650;2022-07-29T07:26:30;6.45;;;2.75;;
32934;SDS011;19292;51.532;7.650;2022-07-29T07:28:55;7.75;;;2.65;;
32934;SDS011;19292;51.532;7.650;2022-07-29T07:31:21;7.75;;;2.53;;
32934;SDS011;19292;51.532;7.650;2022-07-29T07:33:46;4.88;;;2.30;;
32934;SDS011;19292;51.532;7.650;2022-07-29T07:36:13;10.80;;;2.55;;
32934;SDS011;19292;51.532;7.650;2022-07-29T07:38:38;5.47;;;2.22;;
32934;SDS011;19292;51.532;7.650;2022-07-29T07:41:03;23.13;;;4.65;;
32934;SDS011;19292;51.532;7.650;2022-07-29T07:43:29;7.15;;;5.07;;
32934;SDS011;19292;51.532;7.650;2022-07-29T07:45:57;7.43;;;2.40;;
32934;SDS011;19292;51.532;7.650;2022-07-29T07:48:22;7.80;;;2.60;;
32934;SDS011;19292;51.532;7.650;2022-07-29T07:50:48;7.20;;;2.50;;
32934;SDS011;19292;51.532;7.650;2022-07-29T07:53:14;5.28;;;2.35;;
32934;SDS011;19292;51.532;7.650;2022-07-29T07:55:40;7.88;;;2.70;;
32934;SDS011;19292;51.532;7.650;2022-07-29T07:58:06;5.28;;;2.33;;
32934;SDS011;19292;51.532;7.650;2022-07-29T08:00:31;7.97;;;2.00;;
32934;SDS011;19292;51.532;7.650;2022-07-29T08:02:57;6.43;;;2.67;;
32934;SDS011;19292;51.532;7.650;2022-07-29T08:05:23;3.80;;;2.65;;
32934;SDS011;19292;51.532;7.650;2022-07-29T08:07:48;6.30;;;2.35;;
32934;SDS011;19292;51.532;7.650;2022-07-29T08:10:15;5.85;;;2.67;;
32934;SDS011;19292;51.532;7.650;2022-07-29T08:13:02;7.97;;;2.38;;
32934;SDS011;19292;51.532;7.650;2022-07-29T08:15:33;6.25;;;1.98;;
32934;SDS011;19292;51.532;7.650;2022-07-29T08:17:59;7.03;;;2.40;;
32934;SDS011;19292;51.532;7.650;2022-07-29T08:20:27;6.20;;;2.35;;
32934;SDS011;19292;51.532;7.650;2022-07-29T08:22:53;7.43;;;2.30;;
32934;SDS011;19292;51.532;7.650;2022-07-29T08:25:18;5.65;;;2.30;;
32934;SDS011;19292;51.532;7.650;2022-07-29T08:27:45;5.30;;;2.63;;
32934;SDS011;19292;51.532;7.650;2022-07-29T08:30:14;4.88;;;2.08;;
32934;SDS011;19292;51.532;7.650;2022-07-29T08:32:40;6.03;;;2.65;;
32934;SDS011;19292;51.532;7.650;2022-07-29T08:35:05;6.70;;;2.78;;
32934;SDS011;19292;51.532;7.650;2022-07-29T08:37:32;5.40;;;2.10;;
32934;SDS011;19292;51.532;7.650;2022-07-29T08:39:57;7.07;;;2.90;;
32934;SDS011;19292;51.532;7.650;2022-07-29T08:42:23;8.65;;;2.67;;
32934;SDS011;19292;51.532;7.650;2022-07-29T08:44:48;6.25;;;2.17;;
32934;SDS011;19292;51.532;7.650;2022-07-29T08:47:15;5.55;;;2.10;;
32934;SDS011;19292;51.532;7.650;2022-07-29T08:49:41;9.57;;;2.78;;
32934;SDS011;19292;51.532;7.650;2022-07-29T08:52:10;11.93;;;2.35;;
32934;SDS011;19292;51.532;7.650;2022-07-29T08:54:39;7.43;;;2.40;;
32934;SDS011;19292;51.532;7.650;2022-07-29T08:57:04;9.43;;;2.40;;
32934;SDS011;19292;51.532;7.650;2022-07-29T08:59:30;10.43;;;2.53;;
32934;SDS011;19292;51.532;7.650;2022-07-29T09:01:57;10.73;;;2.78;;
32934;SDS011;19292;51.532;7.650;2022-07-29T09:04:25;6.32;;;2.30;;
32934;SDS011;19292;51.532;7.650;2022-07-29T09:06:52;6.97;;;3.60;;
32934;SDS011;19292;51.532;7.650;2022-07-29T09:09:19;8.57;;;4.80;;
32934;SDS011;19292;51.532;7.650;2022-07-29T09:11:44;10.75;;;3.90;;
32934;SDS011;19292;51.532;7.650;2022-07-29T09:14:10;6.93;;;2.75;;
32934;SDS011;19292;51.532;7.650;2022-07-29T09:16:46;10.90;;;3.40;;
32934;SDS011;19292;51.532;7.650;2022-07-29T09:19:30;9.50;;;7.13;;
32934;SDS011;19292;51.532;7.650;2022-07-29T09:21:59;8.55;;;7.75;;
32934;SDS011;19292;51.532;7.650;2022-07-29T09:27:00;9.48;;;8.77;;
32934;SDS011;19292;51.532;7.650;2022-07-29T09:29:26;11.73;;;9.57;;
32934;SDS011;19292;51.532;7.650;2022-07-29T09:31:53;12.68;;;11.48;;
32934;SDS011;19292;51.532;7.650;2022-07-29T09:34:23;14.30;;;11.10;;
32934;SDS011;19292;51.532;7.650;2022-07-29T09:36:54;10.38;;;9.32;;
32934;SDS011;19292;51.532;7.650;2022-07-29T09:39:27;8.68;;;7.97;;
32934;SDS011;19292;51.532;7.650;2022-07-29T09:41:56;10.38;;;9.65;;
32934;SDS011;19292;51.532;7.650;2022-07-29T09:44:25;11.52;;;10.43;;
32934;SDS011;19292;51.532;7.650;2022-07-29T09:47:09;9.88;;;8.90;;
32934;SDS011;19292;51.532;7.650;2022-07-29T09:49:51;11.95;;;11.07;;
32934;SDS011;19292;51.532;7.650;2022-07-29T09:52:19;9.40;;;8.43;;
32934;SDS011;19292;51.532;7.650;2022-07-29T09:54:45;13.88;;;8.57;;
32934;SDS011;19292;51.532;7.650;2022-07-29T09:57:24;8.48;;;7.68;;
32934;SDS011;19292;51.532;7.650;2022-07-29T09:59:57;9.93;;;9.13;;
32934;SDS011;19292;51.532;7.650;2022-07-29T10:02:28;9.68;;;8.68;;
32934;SDS011;19292;51.532;7.650;2022-07-29T10:04:54;6.90;;;6.00;;
32934;SDS011;19292;51.532;7.650;2022-07-29T10:07:20;7.82;;;7.00;;
32934;SDS011;19292;51.532;7.650;2022-07-29T10:09:52;8.88;;;7.28;;
32934;SDS011;19292;51.532;7.650;2022-07-29T10:12:21;10.18;;;8.25;;
32934;SDS011;19292;51.532;7.650;2022-07-29T10:14:47;9.82;;;7.97;;
32934;SDS011;19292;51.532;7.650;2022-07-29T10:17:13;10.88;;;6.93;;
32934;SDS011;19292;51.532;7.650;2022-07-29T10:19:43;8.87;;;7.63;;
32934;SDS011;19292;51.532;7.650;2022-07-29T10:22:09;9.57;;;8.75;;
32934;SDS011;19292;51.532;7.650;2022-07-29T10:24:36;8.70;;;6.55;;
32934;SDS011;19292;51.532;7.650;2022-07-29T10:27:05;9.23;;;7.97;;
32934;SDS011;19292;51.532;7.650;2022-07-29T10:29:32;7.47;;;6.80;;
32934;SDS011;19292;51.532;7.650;2022-07-29T10:37:37;9.77;;;6.88;;
32934;SDS011;19292;51.532;7.650;2022-07-29T10:40:21;9.95;;;8.13;;
32934;SDS011;19292;51.532;7.650;2022-07-29T10:43:19;12.23;;;8.85;;
32934;SDS011;19292;51.532;7.650;2022-07-29T10:45:48;9.00;;;6.13;;
32934;SDS011;19292;51.532;7.650;2022-07-29T10:48:14;9.05;;;4.45;;
32934;SDS011;19292;51.532;7.650;2022-07-29T10:50:54;5.20;;;3.15;;
32934;SDS011;19292;51.532;7.650;2022-07-29T10:53:45;8.55;;;3.17;;
32934;SDS011;19292;51.532;7.650;2022-07-29T10:56:27;8.85;;;2.67;;
32934;SDS011;19292;51.532;7.650;2022-07-29T11:01:44;6.38;;;3.10;;
32934;SDS011;19292;51.532;7.650;2022-07-29T11:04:10;8.43;;;3.55;;
32934;SDS011;19292;51.532;7.650;2022-07-29T11:09:26;8.95;;;3.67;;
32934;SDS011;19292;51.532;7.650;2022-07-29T11:11:53;7.20;;;3.60;;
32934;SDS011;19292;51.532;7.650;2022-07-29T11:14:18;9.23;;;3.92;;
32934;SDS011;19292;51.532;7.650;2022-07-29T11:17:19;6.15;;;3.65;;
32934;SDS011;19292;51.532;7.650;2022-07-29T11:19:45;11.00;;;4.25;;
32934;SDS011;19292;51.532;7.650;2022-07-29T11:22:10;6.65;;;3.88;;
32934;SDS011;19292;51.532;7.650;2022-07-29T11:24:37;7.28;;;4.20;;
32934;SDS011;19292;51.532;7.650;2022-07-29T11:27:06;8.13;;;3.55;;
32934;SDS011;19292;51.532;7.650;2022-07-29T11:29:57;10.20;;;3.83;;
32934;SDS011;19292;51.532;7.650;2022-07-29T11:32:35;7.47;;;3.70;;
32934;SDS011;19292;51.532;7.650;2022-07-29T11:37:43;7.18;;;3.75;;
32934;SDS011;19292;51.532;7.650;2022-07-29T11:40:10;4.90;;;3.35;;
32934;SDS011;19292;51.532;7.650;2022-07-29T11:42:37;9.95;;;4.20;;
32934;SDS011;19292;51.532;7.650;2022-07-29T11:47:35;9.02;;;3.33;;
32934;SDS011;19292;51.532;7.650;2022-07-29T11:50:02;13.30;;;4.18;;
32934;SDS011;19292;51.532;7.650;2022-07-29T11:52:36;6.05;;;3.10;;
32934;SDS011;19292;51.532;7.650;2022-07-29T11:55:10;11.40;;;3.20;;
32934;SDS011;19292;51.532;7.650;2022-07-29T11:57:37;8.93;;;3.63;;
32934;SDS011;19292;51.532;7.650;2022-07-29T12:00:09;7.43;;;2.97;;
32934;SDS011;19292;51.532;7.650;2022-07-29T12:02:42;7.32;;;3.38;;
32934;SDS011;19292;51.532;7.650;2022-07-29T12:05:09;7.60;;;3.28;;
32934;SDS011;19292;51.532;7.650;2022-07-29T12:07:36;8.55;;;3.22;;
32934;SDS011;19292;51.532;7.650;2022-07-29T12:10:03;8.30;;;3.70;;
32934;SDS011;19292;51.532;7.650;2022-07-29T12:12:28;7.95;;;4.03;;
32934;SDS011;19292;51.532;7.650;2022-07-29T12:14:54;7.60;;;3.75;;
32934;SDS011;19292;51.532;7.650;2022-07-29T12:17:33;8.70;;;3.75;;
32934;SDS011;19292;51.532;7.650;2022-07-29T12:20:00;6.32;;;3.58;;
32934;SDS011;19292;51.532;7.650;2022-07-29T12:22:38;9.98;;;3.92;;
32934;SDS011;19292;51.532;7.650;2022-07-29T12:25:09;7.32;;;3.42;;
32934;SDS011;19292;51.532;7.650;2022-07-29T12:27:37;7.85;;;3.25;;
32934;SDS011;19292;51.532;7.650;2022-07-29T12:30:07;6.97;;;3.10;;
32934;SDS011;19292;51.532;7.650;2022-07-29T12:35:14;7.85;;;2.92;;
32934;SDS011;19292;51.532;7.650;2022-07-29T12:37:42;9.20;;;2.60;;
32934;SDS011;19292;51.532;7.650;2022-07-29T12:40:09;6.68;;;2.63;;
32934;SDS011;19292;51.532;7.650;2022-07-29T12:42:36;8.18;;;3.20;;
32934;SDS011;19292;51.532;7.650;2022-07-29T12:45:02;4.15;;;2.60;;
32934;SDS011;19292;51.532;7.650;2022-07-29T12:47:28;7.60;;;2.88;;
32934;SDS011;19292;51.532;7.650;2022-07-29T12:50:13;9.48;;;2.80;;
32934;SDS011;19292;51.532;7.650;2022-07-29T12:52:45;5.85;;;4.82;;
32934;SDS011;19292;51.532;7.650;2022-07-29T12:55:11;5.95;;;2.83;;
32934;SDS011;19292;51.532;7.650;2022-07-29T12:57:49;9.10;;;3.10;;
32934;SDS011;19292;51.532;7.650;2022-07-29T13:00:22;6.63;;;2.63;;
32934;SDS011;19292;51.532;7.650;2022-07-29T13:02:54;9.02;;;2.70;;
32934;SDS011;19292;51.532;7.650;2022-07-29T13:05:20;6.43;;;3.10;;
32934;SDS011;19292;51.532;7.650;2022-07-29T13:07:46;9.52;;;2.70;;
32934;SDS011;19292;51.532;7.650;2022-07-29T13:10:12;6.85;;;3.25;;
32934;SDS011;19292;51.532;7.650;2022-07-29T13:13:00;10.63;;;2.85;;
32934;SDS011;19292;51.532;7.650;2022-07-29T13:15:34;5.80;;;2.83;;
32934;SDS011;19292;51.532;7.650;2022-07-29T13:18:01;5.80;;;2.70;;
32934;SDS011;19292;51.532;7.650;2022-07-29T13:20:27;10.30;;;3.30;;
32934;SDS011;19292;51.532;7.650;2022-07-29T13:22:55;6.65;;;2.60;;
32934;SDS011;19292;51.532;7.650;2022-07-29T13:25:30;8.73;;;6.28;;
32934;SDS011;19292;51.532;7.650;2022-07-29T13:27:56;9.88;;;2.75;;
32934;SDS011;19292;51.532;7.650;2022-07-29T13:30:22;7.25;;;3.13;;
32934;SDS011;19292;51.532;7.650;2022-07-29T13:32:48;6.40;;;2.78;;
32934;SDS011;19292;51.532;7.650;2022-07-29T13:35:14;6.90;;;2.80;;
32934;SDS011;19292;51.532;7.650;2022-07-29T13:37:39;5.60;;;2.88;;
32934;SDS011;19292;51.532;7.650;2022-07-29T13:40:08;8.55;;;3.30;;
32934;SDS011;19292;51.532;7.650;2022-07-29T13:42:34;7.70;;;2.93;;
32934;SDS011;19292;51.532;7.650;2022-07-29T13:45:00;6.95;;;3.20;;
32934;SDS011;19292;51.532;7.650;2022-07-29T13:47:26;6.80;;;3.15;;
32934;SDS011;19292;51.532;7.650;2022-07-29T13:49:52;7.10;;;3.38;;
32934;SDS011;19292;51.532;7.650;2022-07-29T13:52:18;5.18;;;3.50;;
32934;SDS011;19292;51.532;7.650;2022-07-29T13:54:46;8.80;;;3.92;;
32934;SDS011;19292;51.532;7.650;2022-07-29T13:57:12;7.13;;;5.03;;
32934;SDS011;19292;51.532;7.650;2022-07-29T13:59:38;11.00;;;6.25;;
32934;SDS011;19292;51.532;7.650;2022-07-29T14:02:04;7.28;;;5.60;;
32934;SDS011;19292;51.532;7.650;2022-07-29T14:04:30;10.23;;;5.00;;
32934;SDS011;19292;51.532;7.650;2022-07-29T14:06:56;9.73;;;4.97;;
32934;SDS011;19292;51.532;7.650;2022-07-29T14:09:21;8.00;;;5.25;;
32934;SDS011;19292;51.532;7.650;2022-07-29T14:11:46;9.02;;;5.43;;
32934;SDS011;19292;51.532;7.650;2022-07-29T14:14:14;10.20;;;5.47;;
32934;SDS011;19292;51.532;7.650;2022-07-29T14:16:39;8.75;;;4.70;;
32934;SDS011;19292;51.532;7.650;2022-07-29T14:19:05;9.13;;;4.97;;
32934;SDS011;19292;51.532;7.650;2022-07-29T14:21:30;9.88;;;4.57;;
32934;SDS011;19292;51.532;7.650;2022-07-29T14:23:56;6.18;;;4.43;;
32934;SDS011;19292;51.532;7.650;2022-07-29T14:26:21;8.32;;;4.05;;
32934;SDS011;19292;51.532;7.650;2022-07-29T14:28:47;7.47;;;3.70;;
32934;SDS011;19292;51.532;7.650;2022-07-29T14:31:13;10.38;;;4.25;;
32934;SDS011;19292;51.532;7.650;2022-07-29T14:33:39;8.25;;;4.88;;
32934;SDS011;19292;51.532;7.650;2022-07-29T14:36:04;10.88;;;4.25;;
32934;SDS011;19292;51.532;7.650;2022-07-29T14:38:29;6.93;;;3.88;;
32934;SDS011;19292;51.532;7.650;2022-07-29T14:40:55;7.95;;;4.47;;
32934;SDS011;19292;51.532;7.650;2022-07-29T14:43:20;8.57;;;4.38;;
32934;SDS011;19292;51.532;7.650;2022-07-29T14:45:45;10.98;;;5.13;;
32934;SDS011;19292;51.532;7.650;2022-07-29T14:48:11;7.63;;;4.72;;
32934;SDS011;19292;51.532;7.650;2022-07-29T14:50:39;11.18;;;3.90;;
32934;SDS011;19292;51.532;7.650;2022-07-29T14:53:05;7.65;;;3.75;;
32934;SDS011;19292;51.532;7.650;2022-07-29T14:55:30;5.95;;;3.63;;
32934;SDS011;19292;51.532;7.650;2022-07-29T14:57:56;9.68;;;3.72;;
32934;SDS011;19292;51.532;7.650;2022-07-29T15:00:21;9.77;;;3.42;;
32934;SDS011;19292;51.532;7.650;2022-07-29T15:02:47;8.45;;;3.35;;
32934;SDS011;19292;51.532;7.650;2022-07-29T15:05:12;8.15;;;3.67;;
32934;SDS011;19292;51.532;7.650;2022-07-29T15:07:41;6.40;;;3.45;;
32934;SDS011;19292;51.532;7.650;2022-07-29T15:10:09;8.90;;;4.03;;
32934;SDS011;19292;51.532;7.650;2022-07-29T15:12:37;7.13;;;3.50;;
32934;SDS011;19292;51.532;7.650;2022-07-29T15:15:03;5.60;;;3.00;;
32934;SDS011;19292;51.532;7.650;2022-07-29T15:17:28;6.35;;;3.58;;
32934;SDS011;19292;51.532;7.650;2022-07-29T15:19:56;3.97;;;2.75;;